Time;durP1;ratioP1;P1;durP2;ratioP2;P2;SDS_P1;SDS_P2;PMS_P1;PMS_P2;Temp;Humidity;BMP_temperature;BMP_pressure;BME280_temperature;BME280_humidity;BME280_pressure;Samples;Min_cycle;Max_cycle;Signal;HPM_P1;HPM_P2
2022/06/02 00:00:18;;;;;;;2.00;1.90;;;8.00;99.90;;;;;;5015716;28;20074;-76
2022/06/02 00:03:08;;;;;;;2.17;1.98;;;7.90;99.90;;;;;;4998479;28;20073;-76
2022/06/02 00:06:10;;;;;;;3.33;1.75;;;7.90;99.90;;;;;;4991452;28;20073;-76
2022/06/02 00:08:54;;;;;;;;;;;7.90;99.90;;;;;;5009750;28;20041;-76
2022/06/02 00:11:31;;;;;;;2.15;2.00;;;7.90;99.90;;;;;;5008691;28;19921;-76
2022/06/02 00:14:10;;;;;;;5.50;2.28;;;7.80;99.90;;;;;;4996814;28;20100;-76
2022/06/02 00:16:57;;;;;;;2.83;2.10;;;7.80;99.90;;;;;;4989576;28;20107;-76
2022/06/02 00:19:34;;;;;;;2.45;2.13;;;7.80;99.90;;;;;;4977116;28;20041;-76
2022/06/02 00:22:42;;;;;;;2.72;2.53;;;7.70;99.90;;;;;;4999448;28;20045;-76
2022/06/02 00:25:17;;;;;;;2.90;2.70;;;7.70;99.90;;;;;;5011587;28;20057;-76
2022/06/02 00:27:54;;;;;;;3.95;3.25;;;7.70;99.90;;;;;;5011166;28;20538;-76
2022/06/02 00:30:28;;;;;;;3.92;3.45;;;7.70;99.90;;;;;;5024063;28;20551;-76
2022/06/02 00:33:21;;;;;;;4.43;4.03;;;7.70;99.90;;;;;;4991931;28;20069;-76
2022/06/02 00:35:53;;;;;;;4.28;3.53;;;7.60;99.90;;;;;;5003660;28;20113;-75
2022/06/02 00:38:31;;;;;;;3.15;2.80;;;7.50;99.90;;;;;;5001516;28;20452;-76
2022/06/02 00:41:11;;;;;;;2.53;2.10;;;7.50;99.90;;;;;;5020703;28;20685;-76
2022/06/02 00:44:08;;;;;;;2.33;2.13;;;7.50;99.90;;;;;;5003848;28;20120;-76
2022/06/02 00:46:33;;;;;;;2.28;2.00;;;7.50;99.90;;;;;;4994148;28;20064;-76
2022/06/02 00:49:21;;;;;;;3.80;3.50;;;7.40;99.90;;;;;;4992864;28;20480;-76
2022/06/02 00:52:28;;;;;;;3.30;2.60;;;7.40;99.90;;;;;;4990614;28;20042;-76
2022/06/02 00:58:05;;;;;;;3.40;3.10;;;7.30;99.90;;;;;;5026871;28;20049;-76
2022/06/02 01:00:45;;;;;;;4.05;3.42;;;7.30;99.90;;;;;;5027995;28;20053;-76
2022/06/02 01:03:18;;;;;;;3.40;3.10;;;7.30;99.90;;;;;;5027061;28;20034;-76
2022/06/02 01:05:59;;;;;;;3.65;3.35;;;7.20;99.90;;;;;;5014324;28;20121;-75
2022/06/02 01:08:25;;;;;;;6.03;4.10;;;7.20;99.90;;;;;;5025160;28;20049;-76
2022/06/02 01:11:08;;;;;;;4.85;4.45;;;7.20;99.90;;;;;;4991292;28;20045;-76
2022/06/02 01:13:59;;;;;;;5.32;4.75;;;7.20;99.90;;;;;;5006845;28;20049;-76
2022/06/02 01:16:57;;;;;;;4.90;4.40;;;7.20;99.90;;;;;;4976316;28;20100;-76
2022/06/02 01:19:59;;;;;;;5.25;4.75;;;7.10;99.90;;;;;;4977266;28;20038;-76
2022/06/02 01:22:34;;;;;;;6.07;5.47;;;7.10;99.90;;;;;;5003355;28;20071;-76
2022/06/02 01:25:13;;;;;;;5.72;5.22;;;7.10;99.90;;;;;;4982221;28;20049;-76
2022/06/02 01:28:30;;;;;;;4.75;3.90;;;7.10;99.90;;;;;;4976271;28;20049;-76
2022/06/02 01:31:21;;;;;;;2.85;2.60;;;7.10;99.90;;;;;;4991816;28;20145;-76
2022/06/02 01:33:59;;;;;;;4.97;3.33;;;7.00;99.90;;;;;;4983412;28;20073;-76
2022/06/02 01:36:54;;;;;;;3.47;2.97;;;7.00;99.90;;;;;;5024334;28;20289;-76
2022/06/02 01:39:20;;;;;;;3.33;3.05;;;6.90;99.90;;;;;;4998535;28;20490;-76
2022/06/02 01:42:07;;;;;;;3.38;3.08;;;6.90;99.90;;;;;;4985728;28;20065;-76
2022/06/02 01:45:03;;;;;;;3.00;2.75;;;6.90;99.90;;;;;;4986696;28;20038;-76
2022/06/02 01:47:34;;;;;;;3.38;3.08;;;6.80;99.90;;;;;;4989712;28;20403;-76
2022/06/02 01:50:26;;;;;;;2.75;2.50;;;6.80;99.90;;;;;;4990796;28;20073;-76
2022/06/02 01:53:10;;;;;;;3.10;2.80;;;6.70;99.90;;;;;;5023557;28;20034;-76
2022/06/02 01:56:07;;;;;;;3.40;3.10;;;6.70;99.90;;;;;;4984046;28;20091;-75
2022/06/02 01:58:36;;;;;;;3.55;3.25;;;6.70;99.90;;;;;;4987853;28;20029;-76
2022/06/02 02:01:39;;;;;;;3.78;3.40;;;6.70;99.90;;;;;;4990599;28;20045;-76
2022/06/02 02:04:35;;;;;;;3.72;3.42;;;6.70;99.90;;;;;;5009324;28;20401;-76
2022/06/02 02:07:29;;;;;;;3.08;2.78;;;6.60;99.90;;;;;;5020452;28;20608;-76
2022/06/02 02:09:57;;;;;;;3.10;2.80;;;6.60;99.90;;;;;;5024629;28;20049;-76
2022/06/02 02:12:41;;;;;;;3.00;2.70;;;6.60;99.90;;;;;;4985475;28;20042;-76
2022/06/02 02:15:25;;;;;;;3.65;3.35;;;6.60;99.90;;;;;;4996930;28;20128;-76
2022/06/02 02:18:00;;;;;;;3.80;3.50;;;6.50;99.90;;;;;;4989449;28;20046;-76
2022/06/02 02:20:29;;;;;;;3.78;3.47;;;6.50;99.90;;;;;;4997448;28;20033;-76
2022/06/02 02:23:03;;;;;;;3.75;3.42;;;6.50;99.90;;;;;;4991135;28;20145;-76
2022/06/02 02:25:52;;;;;;;3.70;3.40;;;6.40;99.90;;;;;;4999078;28;20037;-76
2022/06/02 02:28:44;;;;;;;4.22;3.83;;;6.40;99.90;;;;;;5018542;28;20112;-76
2022/06/02 02:31:09;;;;;;;3.92;3.53;;;6.40;99.90;;;;;;4990653;28;20096;-76
2022/06/02 02:34:00;;;;;;;4.03;3.72;;;6.40;99.90;;;;;;4975678;28;20058;-76
2022/06/02 02:36:41;;;;;;;3.88;3.58;;;6.40;99.90;;;;;;4985923;28;20045;-76
2022/06/02 02:39:33;;;;;;;4.22;3.83;;;6.40;99.90;;;;;;5010654;28;20038;-76
2022/06/02 02:42:10;;;;;;;4.68;4.28;;;6.40;99.90;;;;;;5001254;28;20398;-76
2022/06/02 02:45:15;;;;;;;4.90;4.47;;;6.40;99.90;;;;;;4991548;28;20038;-77
2022/06/02 02:48:00;;;;;;;4.60;4.18;;;6.40;99.90;;;;;;5028440;28;20049;-76
2022/06/02 02:50:51;;;;;;;5.65;5.15;;;6.40;99.90;;;;;;5021044;28;20089;-76
2022/06/02 02:53:26;;;;;;;4.82;4.43;;;6.40;99.90;;;;;;5028758;28;20056;-76
2022/06/02 02:56:08;;;;;;;6.63;6.03;;;6.40;99.90;;;;;;5002565;28;20033;-77
2022/06/02 02:58:41;;;;;;;;;;;6.30;99.90;;;;;;5003731;28;20038;-77
2022/06/02 03:01:18;;;;;;;6.88;6.18;;;6.30;99.90;;;;;;5023517;28;19921;-77
2022/06/02 03:04:10;;;;;;;7.63;6.85;;;6.40;99.90;;;;;;5028758;28;20069;-77
2022/06/02 03:06:38;;;;;;;7.33;6.63;;;6.30;99.90;;;;;;4993276;28;20042;-77
2022/06/02 03:09:21;;;;;;;7.97;7.25;;;6.30;99.90;;;;;;5028701;28;20301;-77
2022/06/02 03:11:53;;;;;;;7.00;6.40;;;6.30;99.90;;;;;;4978889;28;20057;-77
2022/06/02 03:14:40;;;;;;;7.38;6.68;;;6.30;99.90;;;;;;5028113;28;20097;-77
2022/06/02 03:17:28;;;;;;;8.05;7.35;;;6.30;99.90;;;;;;5007259;28;20042;-77
2022/06/02 03:20:08;;;;;;;9.30;8.50;;;6.30;99.90;;;;;;4983616;28;20037;-77
2022/06/02 03:22:59;;;;;;;8.93;8.13;;;6.30;99.90;;;;;;4973514;28;20380;-76
2022/06/02 03:25:34;;;;;;;13.55;8.77;;;6.30;99.90;;;;;;4986290;28;20452;-77
2022/06/02 03:28:35;;;;;;;8.95;8.15;;;6.30;99.90;;;;;;5021002;28;20361;-77
2022/06/02 03:31:32;;;;;;;8.15;7.45;;;6.30;99.90;;;;;;4959508;28;20050;-77
2022/06/02 03:34:03;;;;;;;8.00;7.30;;;6.30;99.90;;;;;;4990373;28;20100;-77
2022/06/02 03:36:53;;;;;;;7.77;7.17;;;6.30;99.90;;;;;;4997150;28;20030;-77
2022/06/02 03:39:27;;;;;;;18.42;8.60;;;6.40;99.90;;;;;;5027290;28;20849;-77
2022/06/02 03:42:20;;;;;;;8.15;7.45;;;6.40;99.90;;;;;;5000629;28;20209;-77
2022/06/02 03:44:58;;;;;;;;;;;6.40;99.90;;;;;;4995322;28;20053;-77
2022/06/02 03:47:35;;;;;;;7.93;7.20;;;6.40;99.90;;;;;;5017449;28;19918;-77
2022/06/02 03:50:32;;;;;;;8.40;7.70;;;6.40;99.90;;;;;;5023570;28;20523;-77
2022/06/02 03:53:04;;;;;;;8.77;8.00;;;6.40;99.90;;;;;;4989755;28;20403;-77
2022/06/02 03:55:50;;;;;;;9.45;8.52;;;6.50;99.90;;;;;;5009520;28;20673;-77
2022/06/02 03:58:24;;;;;;;8.95;8.15;;;6.50;99.90;;;;;;4984783;28;20042;-77
2022/06/02 04:00:58;;;;;;;8.48;7.78;;;6.60;99.90;;;;;;4996780;28;20041;-77
2022/06/02 04:03:32;;;;;;;9.23;8.43;;;6.60;99.90;;;;;;4984562;28;20044;-77
2022/06/02 04:06:15;;;;;;;8.88;8.07;;;6.60;99.90;;;;;;5022509;28;20121;-77
2022/06/02 04:08:59;;;;;;;8.55;7.85;;;6.70;99.90;;;;;;5001285;28;20496;-77
2022/06/02 04:13:37;;;;;;;9.85;8.95;;;6.70;99.90;;;;;;5025399;28;20072;-77
2022/06/02 04:14:50;;;;;;;9.38;8.57;;;6.80;99.90;;;;;;4998017;28;20057;-77
2022/06/02 04:17:30;;;;;;;10.40;9.35;;;6.80;99.90;;;;;;4953083;28;20519;-77
2022/06/02 04:20:35;;;;;;;11.18;10.18;;;6.80;99.90;;;;;;5002041;28;20124;-77
2022/06/02 04:23:33;;;;;;;15.00;13.50;;;6.90;99.90;;;;;;4974603;28;20065;-77
2022/06/02 04:26:25;;;;;;;12.10;10.90;;;7.00;99.90;;;;;;5024517;28;20137;-77
2022/06/02 04:29:02;;;;;;;12.57;11.10;;;7.00;99.90;;;;;;4971753;28;20184;-77
2022/06/02 04:31:40;;;;;;;13.88;12.48;;;7.10;99.90;;;;;;4993105;28;20034;-77
2022/06/02 04:34:34;;;;;;;14.95;13.52;;;7.20;99.90;;;;;;5018942;28;20046;-77
2022/06/02 04:37:35;;;;;;;15.50;13.60;;;7.20;99.90;;;;;;5026626;28;20048;-77
2022/06/02 04:40:29;;;;;;;15.82;14.23;;;7.30;99.90;;;;;;4946327;28;20046;-77
2022/06/02 04:43:09;;;;;;;16.08;14.40;;;7.40;99.90;;;;;;4986575;28;20479;-77
2022/06/02 04:45:43;;;;;;;17.15;15.45;;;7.50;99.90;;;;;;5020153;28;20043;-77
2022/06/02 04:48:27;;;;;;;16.10;14.13;;;7.60;99.90;;;;;;5020093;28;20042;-77
2022/06/02 04:51:14;;;;;;;14.45;13.05;;;7.70;99.90;;;;;;4991710;28;20046;-77
2022/06/02 04:53:57;;;;;;;16.13;14.43;;;7.80;99.90;;;;;;4993404;28;20065;-77
2022/06/02 04:56:38;;;;;;;17.65;14.20;;;7.90;99.90;;;;;;5000790;28;20045;-77
2022/06/02 04:59:26;;;;;;;15.85;14.25;;;8.00;99.90;;;;;;5025501;28;20129;-77
2022/06/02 05:02:04;;;;;;;16.83;15.02;;;8.10;99.90;;;;;;4982759;28;20033;-77
2022/06/02 05:04:36;;;;;;;15.98;14.38;;;8.20;99.90;;;;;;4993519;28;20053;-77
2022/06/02 05:07:09;;;;;;;17.73;15.98;;;8.30;99.90;;;;;;5014585;28;21835;-77
2022/06/02 05:09:55;;;;;;;16.65;14.85;;;8.40;99.90;;;;;;5013707;28;20042;-77
2022/06/02 05:12:36;;;;;;;15.52;13.93;;;8.50;99.90;;;;;;5023279;28;20099;-77
2022/06/02 05:15:20;;;;;;;16.40;14.30;;;8.50;99.90;;;;;;4985050;28;20046;-77
2022/06/02 05:18:09;;;;;;;16.85;15.13;;;8.70;99.90;;;;;;4987210;28;20087;-77
2022/06/02 05:20:46;;;;;;;14.02;12.73;;;8.80;99.90;;;;;;5024356;28;20064;-77
2022/06/02 05:23:33;;;;;;;14.63;13.32;;;8.90;99.90;;;;;;5018925;28;20504;-77
2022/06/02 05:26:25;;;;;;;13.18;11.82;;;9.10;99.90;;;;;;5020720;28;20051;-77
2022/06/02 05:29:14;;;;;;;12.98;11.25;;;9.20;99.90;;;;;;4955462;28;20112;-77
2022/06/02 05:31:52;;;;;;;13.35;12.15;;;9.40;99.90;;;;;;5021435;28;20476;-77
2022/06/02 05:34:47;;;;;;;12.93;11.63;;;9.50;99.90;;;;;;4990449;28;20041;-77
2022/06/02 05:37:15;;;;;;;11.88;10.80;;;9.60;99.90;;;;;;4976511;28;20064;-77
2022/06/02 05:40:14;;;;;;;12.25;11.13;;;9.80;99.90;;;;;;5039677;22;20053;-82
2022/06/02 05:42:56;;;;;;;12.40;10.85;;;10.00;99.90;;;;;;4999329;28;20042;-81
2022/06/02 05:45:40;;;;;;;10.15;9.05;;;10.10;99.90;;;;;;5012556;28;20479;-81
2022/06/02 05:48:42;;;;;;;8.88;5.95;;;10.60;99.90;;;;;;5043976;28;20038;-81
2022/06/02 05:51:26;;;;;;;6.63;6.07;;;12.60;99.90;;;;;;5017384;28;20043;-81
2022/06/02 05:54:29;;;;;;;6.93;5.43;;;14.70;99.90;;;;;;5016828;28;20053;-81
2022/06/02 05:57:13;;;;;;;5.03;4.63;;;16.60;99.90;;;;;;5020248;28;20042;-81
2022/06/02 06:00:07;;;;;;;5.20;4.70;;;18.10;99.90;;;;;;5034528;28;20049;-81
2022/06/02 06:02:59;;;;;;;4.82;4.43;;;19.10;99.80;;;;;;5012034;28;20406;-80
2022/06/02 06:05:47;;;;;;;4.93;4.53;;;20.00;99.90;;;;;;5024811;28;20038;-81
2022/06/02 06:08:51;;;;;;;3.83;3.53;;;20.90;99.20;;;;;;5016821;28;20048;-81
2022/06/02 06:11:19;;;;;;;4.25;3.92;;;21.50;96.20;;;;;;5030945;28;20038;-81
2022/06/02 06:14:04;;;;;;;4.18;3.78;;;22.30;93.60;;;;;;5007181;28;20044;-81
2022/06/02 06:16:43;;;;;;;4.68;4.20;;;22.90;94.50;;;;;;5009358;28;20495;-80
2022/06/02 06:19:29;;;;;;;3.63;3.33;;;23.50;91.40;;;;;;5018021;28;20038;-81
2022/06/02 06:22:21;;;;;;;3.60;3.25;;;23.80;90.20;;;;;;5018211;28;20042;-80
2022/06/02 06:24:58;;;;;;;3.40;3.10;;;24.20;90.20;;;;;;5029544;28;20041;-81
2022/06/02 06:27:39;;;;;;;3.40;2.88;;;24.60;87.90;;;;;;5030016;28;20046;-81
2022/06/02 06:30:31;;;;;;;3.10;2.80;;;24.90;79.50;;;;;;5043808;28;20739;-76
2022/06/02 06:33:01;;;;;;;;;;;25.00;79.40;;;;;;5031078;28;20129;-75
2022/06/02 06:35:52;;;;;;;3.10;2.80;;;25.00;82.10;;;;;;5042036;28;19945;-76
2022/06/02 06:38:35;;;;;;;3.10;2.80;;;25.30;78.80;;;;;;5029814;28;20062;-76
2022/06/02 06:41:22;;;;;;;2.20;2.00;;;25.50;76.30;;;;;;5037606;28;20069;-75
2022/06/02 06:44:16;;;;;;;1.88;1.77;;;25.40;75.10;;;;;;5011124;28;20057;-75
2022/06/02 06:47:14;;;;;;;1.67;1.58;;;25.60;73.70;;;;;;5030876;28;20091;-75
2022/06/02 06:50:29;;;;;;;2.05;1.85;;;25.00;67.20;;;;;;5019457;28;20037;-74
2022/06/02 06:53:05;;;;;;;1.63;1.50;;;24.90;69.60;;;;;;5009574;28;20137;-74
2022/06/02 06:56:14;;;;;;;3.38;1.70;;;25.20;71.20;;;;;;5025203;28;20041;-75
2022/06/02 06:58:59;;;;;;;2.30;1.77;;;25.40;69.80;;;;;;4994486;28;20478;-76
2022/06/02 07:01:41;;;;;;;2.63;1.60;;;24.90;67.90;;;;;;5010668;28;20057;-76
2022/06/02 07:04:39;;;;;;;2.20;1.88;;;24.60;68.20;;;;;;5007667;28;20084;-77
2022/06/02 07:07:40;;;;;;;3.40;1.65;;;23.90;69.40;;;;;;5028836;28;20056;-76
2022/06/02 07:10:19;;;;;;;2.35;1.60;;;23.50;74.90;;;;;;5025034;28;20455;-76
2022/06/02 07:12:55;;;;;;;2.35;1.80;;;22.70;74.50;;;;;;5026792;28;20067;-76
2022/06/02 07:15:44;;;;;;;1.70;1.60;;;21.80;77.00;;;;;;5004146;28;20050;-76
2022/06/02 07:18:36;;;;;;;3.03;1.52;;;22.20;78.90;;;;;;4999920;28;20038;-76
2022/06/02 07:21:51;;;;;;;3.40;1.20;;;23.30;76.60;;;;;;4988123;28;20046;-75
2022/06/02 07:24:17;;;;;;;2.38;1.15;;;23.00;72.10;;;;;;5027200;28;20475;-74
2022/06/02 07:27:01;;;;;;;2.00;1.30;;;21.20;75.10;;;;;;5004533;28;20125;-82
2022/06/02 07:29:54;;;;;;;10.82;2.20;;;21.10;77.90;;;;;;5039000;28;20121;-75
2022/06/02 07:32:41;;;;;;;2.38;1.45;;;22.20;76.80;;;;;;5022664;28;20038;-76
2022/06/02 07:35:59;;;;;;;4.30;1.40;;;23.10;74.90;;;;;;5039217;28;20471;-74
2022/06/02 07:38:43;;;;;;;1.50;1.40;;;23.40;72.90;;;;;;5036737;28;20054;-75
2022/06/02 07:41:39;;;;;;;2.85;1.40;;;22.60;73.40;;;;;;5015184;28;20528;-75
2022/06/02 07:44:24;;;;;;;2.55;1.40;;;21.80;74.60;;;;;;5003561;28;20045;-75
2022/06/02 07:47:08;;;;;;;1.83;1.73;;;20.90;76.50;;;;;;5039837;28;20161;-75
2022/06/02 07:49:56;;;;;;;4.68;1.48;;;20.40;79.60;;;;;;5012062;28;20046;-75
2022/06/02 07:52:42;;;;;;;2.05;1.40;;;20.40;80.70;;;;;;5026680;28;20041;-75
2022/06/02 07:55:32;;;;;;;2.10;1.80;;;21.40;79.10;;;;;;5011884;28;20407;-75
2022/06/02 07:58:23;;;;;;;2.50;1.58;;;22.10;78.10;;;;;;5026723;28;20120;-75
2022/06/02 08:01:11;;;;;;;3.63;1.58;;;22.50;75.80;;;;;;5010337;28;20042;-76
2022/06/02 08:04:08;;;;;;;3.05;1.40;;;22.50;75.10;;;;;;5021203;28;20045;-77
2022/06/02 08:06:43;;;;;;;1.80;1.50;;;22.40;74.60;;;;;;5036885;28;20080;-77
2022/06/02 08:09:17;;;;;;;2.05;1.60;;;22.20;76.50;;;;;;4992562;28;20045;-76
2022/06/02 08:12:09;;;;;;;2.35;1.48;;;21.90;74.60;;;;;;5038897;28;20077;-75
2022/06/02 08:14:55;;;;;;;3.00;1.55;;;21.40;76.40;;;;;;5037472;28;20042;-77
2022/06/02 08:17:59;;;;;;;3.20;1.45;;;20.90;77.60;;;;;;5026419;28;20042;-78
2022/06/02 08:20:32;;;;;;;2.15;1.33;;;20.40;78.80;;;;;;5035018;28;20042;-78
2022/06/02 08:23:22;;;;;;;2.50;1.50;;;19.70;80.30;;;;;;5023060;28;20072;-76
2022/06/02 08:25:57;;;;;;;3.33;1.70;;;19.50;83.20;;;;;;5020885;28;20044;-75
2022/06/02 08:28:40;;;;;;;1.95;1.50;;;19.20;84.80;;;;;;4988235;28;20034;-75
2022/06/02 08:31:50;;;;;;;1.85;1.40;;;19.10;85.70;;;;;;5031280;28;20080;-74
2022/06/02 08:34:46;;;;;;;2.08;1.55;;;19.10;86.60;;;;;;4985575;28;20385;-75
2022/06/02 08:37:54;;;;;;;4.05;1.70;;;19.10;86.30;;;;;;5023489;28;20050;-75
2022/06/02 08:40:40;;;;;;;2.35;1.30;;;18.90;88.10;;;;;;5007299;28;20050;-74
2022/06/02 08:43:20;;;;;;;2.15;1.48;;;18.80;87.90;;;;;;4988352;28;20080;-75
2022/06/02 08:46:05;;;;;;;3.13;1.88;;;18.90;88.80;;;;;;5005823;28;20106;-75
2022/06/02 08:48:51;;;;;;;1.98;1.67;;;18.90;88.60;;;;;;5001016;28;20042;-76
2022/06/02 08:51:46;;;;;;;3.20;1.98;;;19.00;89.60;;;;;;5002717;28;20045;-76
2022/06/02 08:54:52;;;;;;;3.65;2.08;;;18.90;88.60;;;;;;5005057;28;20044;-76
2022/06/02 08:58:05;;;;;;;4.05;2.00;;;18.40;90.00;;;;;;5023324;28;20046;-76
2022/06/02 09:00:50;;;;;;;2.65;1.95;;;18.90;90.70;;;;;;4980973;28;20061;-76
2022/06/02 09:03:37;;;;;;;1.50;1.35;;;19.10;90.40;;;;;;5045285;28;20057;-76
2022/06/02 09:06:09;;;;;;;2.35;1.50;;;19.00;90.70;;;;;;5011221;28;20038;-75
2022/06/02 09:08:49;;;;;;;1.73;1.27;;;18.90;90.70;;;;;;5039642;28;20034;-75
2022/06/02 09:11:52;;;;;;;1.80;1.35;;;18.80;90.80;;;;;;5007497;28;20045;-76
2022/06/02 09:14:59;;;;;;;2.35;1.50;;;18.60;90.20;;;;;;5036600;28;20412;-74
2022/06/02 09:17:27;;;;;;;3.40;1.50;;;18.40;89.80;;;;;;5006516;28;20130;-76
2022/06/02 09:20:12;;;;;;;2.00;1.55;;;17.70;90.60;;;;;;5040878;28;20116;-76
2022/06/02 09:23:11;;;;;;;1.30;1.20;;;17.60;90.80;;;;;;5034652;28;20456;-75
2022/06/02 09:25:55;;;;;;;1.40;1.27;;;17.60;92.00;;;;;;5020274;28;20119;-75
2022/06/02 09:28:39;;;;;;;1.98;1.60;;;17.90;91.20;;;;;;5009301;28;20050;-75
2022/06/02 09:31:10;;;;;;;3.92;1.40;;;17.70;92.50;;;;;;5042501;28;20045;-75
2022/06/02 09:33:58;;;;;;;2.03;1.30;;;18.00;92.50;;;;;;5040773;28;20045;-75
2022/06/02 09:36:42;;;;;;;5.05;1.70;;;18.30;92.20;;;;;;4997528;28;20038;-75
2022/06/02 09:39:13;;;;;;;2.28;1.60;;;18.40;92.20;;;;;;5005690;28;20491;-75
2022/06/02 09:42:03;;;;;;;2.17;1.40;;;18.30;92.00;;;;;;4990262;28;20061;-75
2022/06/02 09:45:24;;;;;;;4.03;1.70;;;18.30;93.30;;;;;;5040397;28;20053;-75
2022/06/02 09:48:11;;;;;;;3.35;1.65;;;18.20;93.10;;;;;;4983075;28;20065;-76
2022/06/02 09:51:14;;;;;;;1.52;1.42;;;17.70;93.90;;;;;;5004726;28;20503;-77
2022/06/02 09:53:58;;;;;;;1.83;1.42;;;18.00;95.70;;;;;;5037193;28;20033;-76
2022/06/02 09:56:45;;;;;;;3.15;1.77;;;18.20;94.80;;;;;;5034815;28;20039;-76
2022/06/02 09:59:28;;;;;;;1.42;1.33;;;18.30;92.80;;;;;;5031705;28;20073;-76
2022/06/02 10:02:19;;;;;;;2.47;1.30;;;18.60;93.70;;;;;;5015785;28;20116;-75
2022/06/02 10:05:13;;;;;;;2.95;1.27;;;18.80;93.00;;;;;;4991178;28;20046;-75
2022/06/02 10:07:58;;;;;;;2.53;1.55;;;19.00;93.10;;;;;;5009762;28;20491;-75
2022/06/02 10:10:34;;;;;;;2.55;1.33;;;19.30;93.10;;;;;;5012297;28;20068;-77
2022/06/02 10:13:09;;;;;;;3.33;1.52;;;19.20;91.00;;;;;;5032710;28;20100;-77
2022/06/02 10:16:04;;;;;;;1.83;1.40;;;18.20;91.80;;;;;;5013588;28;20041;-76
2022/06/02 10:19:04;;;;;;;3.65;1.25;;;18.50;92.90;;;;;;5010142;28;20470;-76
2022/06/02 10:21:39;;;;;;;4.15;1.45;;;18.60;92.70;;;;;;5025194;28;20045;-76
2022/06/02 10:24:31;;;;;;;2.17;1.50;;;18.60;93.90;;;;;;5011956;28;20042;-76
2022/06/02 10:27:25;;;;;;;1.48;1.38;;;18.50;91.80;;;;;;5007643;28;20029;-76
2022/06/02 10:30:12;;;;;;;1.90;1.20;;;18.40;91.40;;;;;;5004240;28;20495;-76
2022/06/02 10:32:53;;;;;;;2.80;1.17;;;18.70;92.90;;;;;;5033700;28;20058;-76
2022/06/02 10:35:47;;;;;;;1.75;1.38;;;19.00;92.40;;;;;;5037936;28;20053;-76
2022/06/02 10:38:37;;;;;;;2.47;1.40;;;19.20;91.20;;;;;;4991531;28;20042;-76
2022/06/02 10:41:20;;;;;;;2.55;1.25;;;19.50;91.40;;;;;;5041139;28;20078;-76
2022/06/02 10:44:07;;;;;;;3.13;1.40;;;19.80;91.90;;;;;;5001814;28;20053;-75
2022/06/02 10:47:11;;;;;;;7.03;1.83;;;19.80;90.60;;;;;;5012830;28;20137;-75
2022/06/02 10:50:08;;;;;;;1.50;1.27;;;19.40;90.10;;;;;;5014065;28;20509;-75
2022/06/02 10:52:51;;;;;;;1.88;1.60;;;19.50;91.50;;;;;;5013844;28;20043;-76
2022/06/02 10:55:34;;;;;;;2.50;1.60;;;19.60;90.90;;;;;;5009102;28;20129;-76
2022/06/02 10:58:38;;;;;;;2.40;1.30;;;19.60;91.70;;;;;;5042331;28;20042;-76
2022/06/02 11:01:28;;;;;;;1.70;1.38;;;19.90;90.20;;;;;;5005029;28;20042;-76
2022/06/02 11:04:18;;;;;;;1.40;1.30;;;20.20;90.90;;;;;;5042614;28;20128;-76
2022/06/02 11:07:31;;;;;;;3.45;1.60;;;20.40;90.10;;;;;;5032703;28;20128;-72
2022/06/02 11:10:12;;;;;;;1.88;1.13;;;20.50;90.20;;;;;;5017979;28;20125;-74
2022/06/02 11:13:15;;;;;;;2.30;1.45;;;20.70;89.30;;;;;;5011524;28;20041;-73
2022/06/02 11:15:54;;;;;;;2.17;1.60;;;20.80;88.60;;;;;;5046400;28;20129;-73
2022/06/02 11:18:43;;;;;;;1.77;1.30;;;20.70;86.10;;;;;;5013617;28;20387;-73
2022/06/02 11:21:39;;;;;;;2.08;1.30;;;20.90;88.00;;;;;;5001478;28;20037;-73
2022/06/02 11:24:40;;;;;;;2.38;1.30;;;21.00;86.30;;;;;;5027941;28;20042;-74
2022/06/02 11:27:33;;;;;;;1.45;1.20;;;21.20;88.70;;;;;;5034209;28;20049;-73
2022/06/02 11:30:30;;;;;;;1.70;1.27;;;21.10;87.70;;;;;;5024003;28;20105;-73
2022/06/02 11:33:22;;;;;;;2.45;1.30;;;20.50;86.70;;;;;;4996360;28;20053;-73
2022/06/02 11:36:10;;;;;;;5.72;1.67;;;20.30;87.30;;;;;;5047275;28;20034;-73
2022/06/02 11:38:41;;;;;;;3.47;1.40;;;20.10;86.00;;;;;;5024365;28;20049;-73
2022/06/02 11:41:25;;;;;;;1.83;1.60;;;20.40;90.30;;;;;;5020498;28;20057;-73
2022/06/02 11:44:01;;;;;;;3.17;1.45;;;20.60;89.40;;;;;;5038559;28;20050;-74
2022/06/02 11:47:19;;;;;;;2.25;1.33;;;20.40;86.60;;;;;;5012889;28;20045;-74
2022/06/02 11:49:59;;;;;;;2.65;1.27;;;20.60;87.20;;;;;;5022027;28;20046;-73
2022/06/02 11:52:53;;;;;;;3.22;1.25;;;20.60;88.20;;;;;;5045908;28;20052;-73
2022/06/02 11:55:38;;;;;;;1.65;1.55;;;20.60;86.60;;;;;;5008362;28;20050;-73
2022/06/02 11:58:16;;;;;;;1.65;1.17;;;19.80;85.90;;;;;;5030810;28;20034;-73
2022/06/02 12:01:06;;;;;;;4.97;1.42;;;19.80;89.10;;;;;;4997299;28;20046;-74
2022/06/02 12:04:02;;;;;;;3.25;1.90;;;19.20;88.00;;;;;;5009680;28;20051;-73
2022/06/02 12:06:40;;;;;;;1.60;1.20;;;19.60;90.30;;;;;;4992900;28;20132;-73
2022/06/02 12:09:40;;;;;;;1.48;1.38;;;19.90;90.00;;;;;;4992475;28;20046;-73
2022/06/02 12:12:41;;;;;;;6.43;1.50;;;20.20;90.40;;;;;;5008102;28;20164;-73
2022/06/02 12:15:31;;;;;;;2.13;1.38;;;20.40;88.70;;;;;;5007621;28;20049;-73
2022/06/02 12:18:19;;;;;;;1.88;1.17;;;20.30;88.20;;;;;;4991613;28;20178;-74
2022/06/02 12:20:56;;;;;;;2.00;1.40;;;20.70;90.20;;;;;;4991171;28;20085;-73
2022/06/02 12:24:02;;;;;;;2.13;1.60;;;21.10;90.30;;;;;;5007641;28;20061;-74
2022/06/02 12:26:44;;;;;;;1.35;1.25;;;20.50;82.50;;;;;;4991066;28;20053;-74
2022/06/02 12:29:39;;;;;;;1.52;1.20;;;20.80;88.20;;;;;;5024240;28;20046;-73
2022/06/02 12:32:25;;;;;;;2.55;1.40;;;21.10;86.30;;;;;;4991449;28;20455;-73
2022/06/02 12:35:16;;;;;;;2.30;1.20;;;21.00;82.90;;;;;;4991088;28;20042;-73
2022/06/02 12:38:05;;;;;;;2.00;1.25;;;21.20;86.30;;;;;;4991195;28;20130;-73
2022/06/02 12:40:36;;;;;;;2.97;1.17;;;21.40;86.30;;;;;;5023636;28;20100;-74
2022/06/02 12:43:30;;;;;;;1.73;1.02;;;21.50;86.20;;;;;;4991156;28;20042;-74
2022/06/02 12:46:35;;;;;;;1.77;1.23;;;21.60;87.10;;;;;;4990636;28;20082;-74
2022/06/02 12:49:17;;;;;;;2.35;1.30;;;21.60;82.00;;;;;;4990818;28;20247;-73
2022/06/02 12:52:15;;;;;;;3.40;1.30;;;20.90;83.20;;;;;;5007306;28;20480;-73
2022/06/02 12:55:19;;;;;;;2.67;1.33;;;20.50;85.60;;;;;;4990564;28;20551;-72
2022/06/02 12:58:01;;;;;;;1.75;1.45;;;20.80;89.00;;;;;;4990907;28;20445;-73
2022/06/02 13:00:54;;;;;;;1.58;1.30;;;20.80;82.90;;;;;;5023361;28;20077;-73
2022/06/02 13:03:57;;;;;;;1.33;1.20;;;20.80;86.50;;;;;;5007275;28;20132;-73
2022/06/02 13:06:47;;;;;;;2.30;1.55;;;20.80;87.00;;;;;;4989544;28;20474;-73
2022/06/02 13:09:41;;;;;;;2.53;1.40;;;21.10;86.20;;;;;;5023361;28;20048;-73
2022/06/02 13:12:24;;;;;;;1.88;1.40;;;21.20;86.40;;;;;;4990536;28;20543;-73
2022/06/02 13:15:21;;;;;;;2.38;1.40;;;20.70;80.30;;;;;;5006569;28;20073;-73
2022/06/02 13:18:06;;;;;;;1.83;1.40;;;21.10;79.20;;;;;;4990392;28;20125;-73
2022/06/02 13:20:59;;;;;;;1.88;1.55;;;20.90;82.70;;;;;;4990216;28;20093;-73
2022/06/02 13:23:34;;;;;;;3.05;1.60;;;20.50;80.40;;;;;;4990433;28;20373;-73
2022/06/02 13:26:16;;;;;;;1.60;1.25;;;20.50;82.80;;;;;;4990174;28;20034;-73
2022/06/02 13:29:03;;;;;;;2.03;1.73;;;20.90;87.40;;;;;;4990070;28;20050;-73
2022/06/02 13:31:53;;;;;;;2.05;1.10;;;21.00;86.40;;;;;;4990039;28;20133;-73
2022/06/02 13:34:45;;;;;;;1.70;1.40;;;21.20;86.70;;;;;;4989883;28;20050;-73
2022/06/02 13:37:17;;;;;;;2.35;1.33;;;21.40;83.30;;;;;;4990181;28;20054;-73
2022/06/02 13:39:48;;;;;;;1.55;1.27;;;21.40;85.70;;;;;;4989850;28;20049;-73
2022/06/02 13:42:29;;;;;;;;;;;21.50;85.70;;;;;;4990309;28;20046;-73
2022/06/02 13:45:22;;;;;;;1.67;1.30;;;20.90;80.70;;;;;;5022886;28;19953;-73
2022/06/02 13:48:22;;;;;;;1.52;1.40;;;20.90;82.30;;;;;;4989745;28;20049;-73
2022/06/02 13:51:28;;;;;;;3.20;1.55;;;21.20;84.50;;;;;;5006096;28;20093;-73
2022/06/02 14:00:20;;;;;;;3.63;1.45;;;20.80;80.80;;;;;;5022647;28;20391;-73
2022/06/02 14:03:08;;;;;;;3.25;1.50;;;20.80;83.60;;;;;;5022391;28;20100;-73
2022/06/02 14:05:45;;;;;;;2.60;1.38;;;20.70;85.60;;;;;;4990047;28;20046;-73
2022/06/02 14:08:37;;;;;;;2.42;1.75;;;20.80;84.40;;;;;;4989794;28;20065;-74
2022/06/02 14:11:45;;;;;;;1.55;1.40;;;20.60;81.90;;;;;;4981715;28;20047;-73
2022/06/02 14:14:29;;;;;;;3.30;1.17;;;20.70;82.00;;;;;;4986549;28;20137;-72
2022/06/02 14:17:29;;;;;;;2.08;1.20;;;21.00;83.10;;;;;;5022247;28;20038;-73
2022/06/02 14:19:54;;;;;;;3.08;1.38;;;21.20;84.50;;;;;;4993506;28;20039;-73
2022/06/02 14:22:38;;;;;;;4.28;1.50;;;21.40;85.10;;;;;;4993325;28;20050;-73
2022/06/02 14:25:19;;;;;;;2.13;1.20;;;21.10;82.50;;;;;;5009822;28;20081;-73
2022/06/02 14:28:04;;;;;;;2.95;1.48;;;20.60;83.50;;;;;;5026195;28;20057;-73
2022/06/02 14:30:39;;;;;;;3.42;1.33;;;20.40;82.40;;;;;;5026255;28;20053;-73
2022/06/02 14:33:12;;;;;;;4.00;1.42;;;19.70;84.30;;;;;;5026041;28;20054;-74
2022/06/02 14:36:01;;;;;;;1.85;1.10;;;19.90;86.00;;;;;;5026063;28;20030;-74
2022/06/02 14:38:35;;;;;;;2.53;1.38;;;19.90;86.80;;;;;;4983368;28;20121;-74
2022/06/02 14:41:10;;;;;;;3.53;1.40;;;19.90;88.50;;;;;;4993224;28;20042;-74